Time;durP1;ratioP1;P1;durP2;ratioP2;P2;SDS_P1;SDS_P2;PMS_P1;PMS_P2;Temp;Humidity;BMP_temperature;BMP_pressure;BME280_temperature;BME280_humidity;BME280_pressure;Samples;Min_cycle;Max_cycle;Signal;HPM_P1;HPM_P2
2023/09/24 00:02:19;;;;;;;32.50;12.73;;;;;;;;;;5084305;28;20036;-64
2023/09/24 00:04:44;;;;;;;35.33;13.67;;;;;;;;;;5082928;28;20047;-64
2023/09/24 00:07:10;;;;;;;36.73;14.10;;;;;;;;;;5093991;28;20080;-64
2023/09/24 00:09:36;;;;;;;35.93;14.77;;;;;;;;;;5092021;28;20020;-65
2023/09/24 00:12:01;;;;;;;42.97;15.70;;;;;;;;;;5089665;28;20062;-64
2023/09/24 00:14:27;;;;;;;38.57;15.37;;;;;;;;;;5094222;28;20028;-64
2023/09/24 00:16:53;;;;;;;44.13;16.67;;;;;;;;;;5090565;28;20028;-64
2023/09/24 00:19:18;;;;;;;47.17;16.27;;;;;;;;;;5077495;28;20037;-64
2023/09/24 00:21:43;;;;;;;42.37;16.03;;;;;;;;;;5083603;28;20028;-64
2023/09/24 00:24:10;;;;;;;43.30;15.53;;;;;;;;;;5075198;28;20024;-64
2023/09/24 00:26:35;;;;;;;40.63;15.20;;;;;;;;;;5077517;28;20464;-64
2023/09/24 00:29:01;;;;;;;44.57;13.90;;;;;;;;;;5091320;28;20112;-64
2023/09/24 00:31:26;;;;;;;39.07;13.00;;;;;;;;;;5080776;28;20023;-64
2023/09/24 00:33:52;;;;;;;39.03;12.43;;;;;;;;;;5074435;28;20029;-65
2023/09/24 00:36:17;;;;;;;48.40;14.10;;;;;;;;;;5079109;28;20028;-67
2023/09/24 00:38:43;;;;;;;38.10;13.57;;;;;;;;;;5091303;28;20027;-68
2023/09/24 00:41:08;;;;;;;42.17;15.03;;;;;;;;;;5075471;28;20028;-68
2023/09/24 00:43:34;;;;;;;45.67;15.40;;;;;;;;;;5080372;28;20012;-68
2023/09/24 00:46:01;;;;;;;45.87;16.37;;;;;;;;;;5083561;28;20024;-66
2023/09/24 00:48:29;;;;;;;58.60;18.50;;;;;;;;;;5077005;28;20024;-66
2023/09/24 00:50:58;;;;;;;52.67;16.33;;;;;;;;;;5082346;28;20051;-66
2023/09/24 00:53:27;;;;;;;53.50;18.17;;;;;;;;;;5068342;28;20048;-66
2023/09/24 00:55:53;;;;;;;32.70;11.17;;;;;;;;;;5093499;28;20460;-66
2023/09/24 00:58:18;;;;;;;47.60;13.20;;;;;;;;;;5089046;28;20114;-65
2023/09/24 01:03:48;;;;;;;52.17;16.23;;;;;;;;;;5059639;22;20539;-69
2023/09/24 01:06:14;;;;;;;67.73;15.93;;;;;;;;;;5054455;28;20032;-69
2023/09/24 01:08:41;;;;;;;130.70;17.43;;;;;;;;;;5053802;28;20113;-69
2023/09/24 01:11:07;;;;;;;96.43;18.53;;;;;;;;;;5054308;28;20048;-69
2023/09/24 01:13:41;;;;;;;89.50;21.43;;;;;;;;;;5054405;28;20025;-69
2023/09/24 01:16:06;;;;;;;85.03;22.47;;;;;;;;;;5054300;28;20484;-69
2023/09/24 01:18:33;;;;;;;105.33;23.73;;;;;;;;;;5053863;28;20032;-69
2023/09/24 01:20:58;;;;;;;106.27;24.53;;;;;;;;;;5045215;28;20027;-70
2023/09/24 01:23:24;;;;;;;99.97;24.93;;;;;;;;;;5055010;28;20021;-72
2023/09/24 01:25:49;;;;;;;111.63;28.07;;;;;;;;;;5053931;28;20028;-70
2023/09/24 01:28:14;;;;;;;114.50;26.70;;;;;;;;;;5054464;28;20027;-72
2023/09/24 01:30:40;;;;;;;113.10;28.20;;;;;;;;;;5054081;28;20048;-71
2023/09/24 01:33:05;;;;;;;113.33;29.13;;;;;;;;;;5054159;28;20056;-72
2023/09/24 01:35:31;;;;;;;120.03;29.93;;;;;;;;;;5053858;28;20063;-71
2023/09/24 01:38:06;;;;;;;117.83;29.83;;;;;;;;;;5054114;28;20096;-71
2023/09/24 01:40:35;;;;;;;130.40;30.70;;;;;;;;;;5054432;28;20380;-72
2023/09/24 01:43:02;;;;;;;152.83;31.37;;;;;;;;;;5053204;28;20033;-71
2023/09/24 01:45:28;;;;;;;162.67;31.83;;;;;;;;;;5053771;28;20101;-71
2023/09/24 01:47:54;;;;;;;220.43;33.83;;;;;;;;;;5053800;28;20060;-71
2023/09/24 01:50:20;;;;;;;229.07;34.23;;;;;;;;;;5054367;28;20419;-71
2023/09/24 01:52:47;;;;;;;249.30;34.27;;;;;;;;;;5054455;28;20017;-71
2023/09/24 01:55:14;;;;;;;294.20;35.27;;;;;;;;;;5054095;28;20028;-71
2023/09/24 01:57:40;;;;;;;271.13;33.87;;;;;;;;;;5054051;28;20070;-71
2023/09/24 02:00:11;;;;;;;299.17;34.80;;;;;;;;;;5053653;28;20025;-71
2023/09/24 02:02:37;;;;;;;322.30;32.03;;;;;;;;;;5052221;28;20048;-71
2023/09/24 02:05:04;;;;;;;208.33;27.77;;;;;;;;;;5034467;28;20163;-71
2023/09/24 02:07:29;;;;;;;282.70;30.40;;;;;;;;;;5034046;28;20044;-71
2023/09/24 02:09:54;;;;;;;331.33;34.13;;;;;;;;;;5034099;28;20025;-71
2023/09/24 02:12:21;;;;;;;203.93;28.33;;;;;;;;;;5034197;28;20499;-71
2023/09/24 02:14:47;;;;;;;279.70;29.67;;;;;;;;;;5033750;28;20412;-72
2023/09/24 02:17:12;;;;;;;317.97;30.87;;;;;;;;;;5029850;28;20083;-72
2023/09/24 02:19:37;;;;;;;295.57;30.87;;;;;;;;;;5033642;28;20032;-72
2023/09/24 02:22:03;;;;;;;400.67;33.23;;;;;;;;;;5033154;28;20017;-72
2023/09/24 02:24:28;;;;;;;286.80;30.03;;;;;;;;;;5033228;28;20041;-72
2023/09/24 02:26:54;;;;;;;280.70;29.00;;;;;;;;;;5033195;28;20109;-71
2023/09/24 02:29:19;;;;;;;374.70;32.40;;;;;;;;;;5031405;28;20025;-72
2023/09/24 02:31:44;;;;;;;337.47;31.83;;;;;;;;;;5033559;28;20017;-71
2023/09/24 02:34:10;;;;;;;367.10;33.07;;;;;;;;;;5029519;28;20079;-70
2023/09/24 02:36:35;;;;;;;330.33;34.03;;;;;;;;;;5045472;28;20013;-70
2023/09/24 02:39:00;;;;;;;376.43;34.40;;;;;;;;;;5052890;28;20033;-70
2023/09/24 02:41:25;;;;;;;324.17;33.87;;;;;;;;;;5037945;28;20032;-70
2023/09/24 02:43:53;;;;;;;368.50;34.17;;;;;;;;;;5033629;28;20100;-70
2023/09/24 02:46:18;;;;;;;386.83;35.20;;;;;;;;;;5033625;28;20036;-70
2023/09/24 02:48:44;;;;;;;332.43;32.63;;;;;;;;;;5026375;28;20022;-70
2023/09/24 02:51:10;;;;;;;343.20;34.70;;;;;;;;;;5020903;28;20040;-71
2023/09/24 02:53:38;;;;;;;342.10;34.33;;;;;;;;;;5033046;28;20021;-71
2023/09/24 02:56:04;;;;;;;350.93;36.53;;;;;;;;;;5033034;28;20053;-70
2023/09/24 02:58:32;;;;;;;311.63;32.57;;;;;;;;;;5033076;28;20425;-70
2023/09/24 03:00:57;;;;;;;317.20;33.53;;;;;;;;;;5033132;28;20029;-71
2023/09/24 03:03:22;;;;;;;368.20;36.83;;;;;;;;;;5038320;28;20049;-71
2023/09/24 03:05:48;;;;;;;370.63;36.50;;;;;;;;;;5044688;28;20021;-70
2023/09/24 03:08:15;;;;;;;396.33;37.43;;;;;;;;;;5032922;28;20109;-71
2023/09/24 03:10:41;;;;;;;350.47;37.33;;;;;;;;;;5032768;28;20018;-70
2023/09/24 03:13:06;;;;;;;408.63;39.37;;;;;;;;;;5032831;28;20044;-70
2023/09/24 03:15:31;;;;;;;410.27;40.57;;;;;;;;;;5032312;28;20026;-72
2023/09/24 03:17:58;;;;;;;409.10;37.67;;;;;;;;;;5033280;28;20033;-70
2023/09/24 03:20:24;;;;;;;499.85;42.45;;;;;;;;;;5033272;28;20025;-70
2023/09/24 03:22:50;;;;;;;467.83;39.60;;;;;;;;;;5032867;28;20026;-70
2023/09/24 03:25:17;;;;;;;452.07;39.30;;;;;;;;;;5034021;28;20032;-70
2023/09/24 03:27:43;;;;;;;473.83;41.77;;;;;;;;;;5036994;28;20053;-70
2023/09/24 03:30:13;;;;;;;422.90;40.23;;;;;;;;;;5036854;28;20496;-70
2023/09/24 03:32:39;;;;;;;371.67;36.90;;;;;;;;;;5036131;28;20473;-70
2023/09/24 03:35:06;;;;;;;413.07;37.87;;;;;;;;;;5034206;28;20314;-70
2023/09/24 03:37:32;;;;;;;381.53;37.27;;;;;;;;;;5017329;28;20026;-70
2023/09/24 03:39:57;;;;;;;302.73;36.07;;;;;;;;;;5016984;28;20026;-70
2023/09/24 03:42:22;;;;;;;286.83;32.87;;;;;;;;;;5016846;28;20030;-70
2023/09/24 03:44:47;;;;;;;279.00;32.60;;;;;;;;;;5016883;28;20034;-70
2023/09/24 03:47:14;;;;;;;277.80;33.33;;;;;;;;;;5016825;28;20071;-70
2023/09/24 03:49:39;;;;;;;333.67;32.03;;;;;;;;;;5017696;28;20041;-70
2023/09/24 03:52:05;;;;;;;284.57;32.03;;;;;;;;;;5017085;28;20359;-70
2023/09/24 03:54:31;;;;;;;247.33;31.07;;;;;;;;;;5036512;28;20021;-70
2023/09/24 03:56:57;;;;;;;358.83;33.60;;;;;;;;;;5036730;28;20017;-70
2023/09/24 03:59:22;;;;;;;281.60;31.60;;;;;;;;;;5036619;28;20474;-70
2023/09/24 04:01:47;;;;;;;278.03;30.73;;;;;;;;;;5035932;28;20481;-70
2023/09/24 04:04:12;;;;;;;298.93;33.17;;;;;;;;;;5048637;28;20131;-71
2023/09/24 04:06:39;;;;;;;339.10;36.07;;;;;;;;;;5055663;28;20036;-70
2023/09/24 04:09:05;;;;;;;299.40;34.27;;;;;;;;;;5018856;28;20026;-70
2023/09/24 04:11:30;;;;;;;312.20;34.33;;;;;;;;;;5022271;28;20025;-70
2023/09/24 04:13:55;;;;;;;202.37;29.80;;;;;;;;;;5036154;28;20022;-70
2023/09/24 04:16:22;;;;;;;198.20;28.97;;;;;;;;;;5036358;28;20067;-70
2023/09/24 04:18:47;;;;;;;216.30;28.00;;;;;;;;;;5036192;28;20355;-70
2023/09/24 04:21:14;;;;;;;231.63;29.57;;;;;;;;;;5034950;28;20044;-70
2023/09/24 04:23:39;;;;;;;215.53;29.33;;;;;;;;;;5035535;28;20123;-70
2023/09/24 04:26:04;;;;;;;208.97;29.17;;;;;;;;;;5036161;28;20022;-71
2023/09/24 04:28:29;;;;;;;206.67;29.93;;;;;;;;;;5034356;28;20025;-70
2023/09/24 04:30:56;;;;;;;227.63;31.53;;;;;;;;;;5035983;28;20022;-70
2023/09/24 04:33:21;;;;;;;241.87;31.67;;;;;;;;;;5036097;28;20022;-70
2023/09/24 04:35:47;;;;;;;215.33;30.70;;;;;;;;;;5035161;28;20013;-70
2023/09/24 04:38:13;;;;;;;257.40;31.63;;;;;;;;;;5035365;28;20067;-71
2023/09/24 04:40:39;;;;;;;262.23;33.97;;;;;;;;;;5035457;28;20030;-71
2023/09/24 04:43:05;;;;;;;276.87;35.07;;;;;;;;;;5035442;28;20462;-71
2023/09/24 04:45:31;;;;;;;266.33;36.20;;;;;;;;;;5035808;28;20049;-72
2023/09/24 04:47:56;;;;;;;267.50;36.03;;;;;;;;;;5035788;28;20025;-73
2023/09/24 04:50:23;;;;;;;290.17;36.43;;;;;;;;;;5035533;28;20376;-72
2023/09/24 04:52:50;;;;;;;246.97;33.93;;;;;;;;;;5035343;28;20032;-72
2023/09/24 04:55:16;;;;;;;198.27;30.48;;;;;;;;;;5043013;28;20033;-72
2023/09/24 04:57:45;;;;;;;216.77;30.50;;;;;;;;;;5040535;28;20389;-72
2023/09/24 05:00:13;;;;;;;218.50;31.83;;;;;;;;;;5035224;28;20028;-72
2023/09/24 05:02:38;;;;;;;155.77;26.33;;;;;;;;;;5034949;28;20575;-71
2023/09/24 05:05:03;;;;;;;170.70;27.57;;;;;;;;;;5029420;28;20049;-72
2023/09/24 05:07:28;;;;;;;173.83;26.53;;;;;;;;;;5015627;28;20026;-72
2023/09/24 05:09:54;;;;;;;215.80;30.30;;;;;;;;;;5015203;28;20457;-71
2023/09/24 05:12:19;;;;;;;219.97;30.27;;;;;;;;;;5015592;28;20029;-71
2023/09/24 05:14:44;;;;;;;260.73;31.60;;;;;;;;;;5014700;28;20025;-72
2023/09/24 05:17:09;;;;;;;197.93;28.43;;;;;;;;;;5015236;28;20024;-72
2023/09/24 05:19:35;;;;;;;218.37;28.40;;;;;;;;;;5030644;28;20032;-72
2023/09/24 05:22:00;;;;;;;193.40;28.07;;;;;;;;;;5035196;28;20029;-73
2023/09/24 05:24:25;;;;;;;233.40;31.83;;;;;;;;;;5035037;28;20028;-72
2023/09/24 05:26:50;;;;;;;216.00;31.37;;;;;;;;;;5034529;28;20127;-72
2023/09/24 05:29:16;;;;;;;221.48;31.02;;;;;;;;;;5034943;28;20028;-72
2023/09/24 05:31:41;;;;;;;205.83;30.20;;;;;;;;;;5034735;28;20025;-70
2023/09/24 05:34:07;;;;;;;205.67;30.30;;;;;;;;;;5033794;28;20477;-71
2023/09/24 05:36:32;;;;;;;202.90;29.60;;;;;;;;;;5016636;28;20022;-71
2023/09/24 05:38:58;;;;;;;209.20;28.63;;;;;;;;;;5029566;28;20022;-71
2023/09/24 05:41:24;;;;;;;168.10;26.87;;;;;;;;;;5044147;28;20098;-71
2023/09/24 05:43:49;;;;;;;168.47;27.13;;;;;;;;;;5054420;28;20465;-66
2023/09/24 05:46:14;;;;;;;130.95;23.52;;;;;;;;;;5054400;28;20031;-66
2023/09/24 05:48:40;;;;;;;129.03;24.30;;;;;;;;;;5053781;28;20074;-65
2023/09/24 05:51:07;;;;;;;163.25;25.98;;;;;;;;;;5054021;28;20070;-68
2023/09/24 05:53:32;;;;;;;148.70;25.75;;;;;;;;;;5046908;28;20017;-68
2023/09/24 05:55:57;;;;;;;141.10;25.37;;;;;;;;;;5026000;28;20118;-66
2023/09/24 05:58:23;;;;;;;147.67;25.47;;;;;;;;;;5047620;28;20021;-66
2023/09/24 06:00:50;;;;;;;149.60;24.37;;;;;;;;;;5036369;28;20104;-68
2023/09/24 06:03:15;;;;;;;170.53;27.73;;;;;;;;;;5028436;28;20061;-67
2023/09/24 06:05:40;;;;;;;180.40;27.47;;;;;;;;;;5050694;28;20028;-67
2023/09/24 06:08:06;;;;;;;159.03;25.87;;;;;;;;;;5050680;28;20068;-67
2023/09/24 06:10:32;;;;;;;146.05;25.40;;;;;;;;;;5033654;28;20033;-67
2023/09/24 06:12:57;;;;;;;139.80;24.42;;;;;;;;;;5033940;28;20025;-67
2023/09/24 06:15:22;;;;;;;126.87;24.07;;;;;;;;;;5023021;28;20025;-66
2023/09/24 06:17:50;;;;;;;129.60;24.50;;;;;;;;;;5034312;28;20057;-67
2023/09/24 06:20:16;;;;;;;125.65;23.85;;;;;;;;;;5034059;28;20485;-65
2023/09/24 06:22:41;;;;;;;106.60;23.63;;;;;;;;;;5022432;28;20088;-66
2023/09/24 06:25:07;;;;;;;99.53;22.25;;;;;;;;;;5033666;28;20449;-66
2023/09/24 06:27:33;;;;;;;97.80;21.92;;;;;;;;;;5033187;28;20038;-66
2023/09/24 06:29:58;;;;;;;119.38;23.65;;;;;;;;;;5033602;28;20025;-67
2023/09/24 06:32:23;;;;;;;101.03;21.55;;;;;;;;;;5033966;28;20032;-67
2023/09/24 06:34:49;;;;;;;83.22;19.40;;;;;;;;;;5033189;28;20456;-68
2023/09/24 06:37:15;;;;;;;83.68;20.65;;;;;;;;;;5033634;28;20072;-67
2023/09/24 06:39:41;;;;;;;84.85;21.33;;;;;;;;;;5029589;28;20025;-67
2023/09/24 06:42:09;;;;;;;87.00;21.00;;;;;;;;;;5033146;28;20030;-67
2023/09/24 06:44:34;;;;;;;84.25;21.83;;;;;;;;;;5025527;28;20148;-68
2023/09/24 06:47:00;;;;;;;82.53;23.17;;;;;;;;;;5041389;28;20481;-65
2023/09/24 06:49:25;;;;;;;75.70;21.80;;;;;;;;;;5052581;28;20025;-65
2023/09/24 06:51:52;;;;;;;71.15;21.52;;;;;;;;;;5033041;28;20025;-66
2023/09/24 06:54:18;;;;;;;61.45;21.08;;;;;;;;;;5033355;28;20032;-66
2023/09/24 06:56:44;;;;;;;70.88;20.92;;;;;;;;;;5052646;28;20024;-67
2023/09/24 06:59:10;;;;;;;65.40;22.27;;;;;;;;;;5052581;28;20021;-67
2023/09/24 07:01:36;;;;;;;58.33;21.42;;;;;;;;;;5051872;28;20099;-67
2023/09/24 07:04:01;;;;;;;55.53;20.77;;;;;;;;;;5032877;28;20057;-67
2023/09/24 07:06:26;;;;;;;60.50;21.55;;;;;;;;;;5029181;28;20024;-67
2023/09/24 07:08:52;;;;;;;55.63;21.77;;;;;;;;;;5024794;28;20014;-66
2023/09/24 07:11:21;;;;;;;57.42;21.13;;;;;;;;;;5049118;28;20070;-66
2023/09/24 07:13:46;;;;;;;41.53;18.92;;;;;;;;;;5051602;28;20048;-66
2023/09/24 07:16:11;;;;;;;37.58;18.27;;;;;;;;;;5053075;28;20017;-66
2023/09/24 07:18:37;;;;;;;32.55;17.10;;;;;;;;;;5051219;28;20025;-66
2023/09/24 07:21:02;;;;;;;29.70;16.25;;;;;;;;;;5053165;28;20041;-66
2023/09/24 07:23:28;;;;;;;28.70;15.93;;;;;;;;;;5041593;28;20402;-66
2023/09/24 07:25:53;;;;;;;33.83;16.13;;;;;;;;;;5029036;28;20099;-69
2023/09/24 07:28:20;;;;;;;28.00;14.80;;;;;;;;;;5030617;28;20030;-66
2023/09/24 07:30:45;;;;;;;22.67;14.02;;;;;;;;;;5029034;28;20025;-66
2023/09/24 07:33:10;;;;;;;23.73;13.55;;;;;;;;;;5027298;28;20031;-65
2023/09/24 07:35:35;;;;;;;21.45;11.75;;;;;;;;;;5048793;28;20091;-66
2023/09/24 07:38:01;;;;;;;18.48;10.82;;;;;;;;;;5050237;28;20414;-66
2023/09/24 07:40:26;;;;;;;13.60;9.13;;;;;;;;;;5028635;28;20029;-66
2023/09/24 07:42:51;;;;;;;15.10;8.55;;;;;;;;;;5028907;28;20060;-67
2023/09/24 07:45:18;;;;;;;13.55;9.20;;;;;;;;;;5041922;28;20475;-66
2023/09/24 07:47:44;;;;;;;14.88;8.90;;;;;;;;;;5025617;28;20036;-66
2023/09/24 07:50:10;;;;;;;14.32;8.30;;;;;;;;;;5025801;28;20029;-66
2023/09/24 07:52:35;;;;;;;15.63;8.65;;;;;;;;;;5029820;28;20350;-66
2023/09/24 07:55:01;;;;;;;12.32;7.50;;;;;;;;;;5036782;28;20087;-66
2023/09/24 07:57:26;;;;;;;11.48;7.50;;;;;;;;;;5041043;28;20412;-66
2023/09/24 07:59:52;;;;;;;10.93;6.82;;;;;;;;;;5027259;28;20029;-66
2023/09/24 08:02:17;;;;;;;11.55;7.68;;;;;;;;;;5032345;28;20053;-67
2023/09/24 08:04:42;;;;;;;10.70;7.18;;;;;;;;;;5032616;28;20026;-66
2023/09/24 08:07:08;;;;;;;11.50;7.50;;;;;;;;;;5032040;28;20112;-66
2023/09/24 08:09:36;;;;;;;11.90;7.32;;;;;;;;;;5032771;28;20381;-66
2023/09/24 08:12:02;;;;;;;12.18;6.90;;;;;;;;;;5034643;28;20049;-65
2023/09/24 08:14:27;;;;;;;9.93;6.88;;;;;;;;;;5036059;28;20025;-65
2023/09/24 08:16:53;;;;;;;10.68;6.88;;;;;;;;;;5036329;28;20017;-67
2023/09/24 08:19:18;;;;;;;10.30;6.22;;;;;;;;;;5036095;28;20050;-65
2023/09/24 08:21:43;;;;;;;10.98;6.40;;;;;;;;;;5036101;28;20026;-66
2023/09/24 08:24:08;;;;;;;10.55;5.78;;;;;;;;;;5035698;28;20021;-65
2023/09/24 08:26:35;;;;;;;8.15;5.20;;;;;;;;;;5035059;28;20013;-67
2023/09/24 08:29:05;;;;;;;7.50;5.32;;;;;;;;;;5035925;28;20597;-67
2023/09/24 08:31:31;;;;;;;10.02;5.80;;;;;;;;;;5035703;28;20017;-67
2023/09/24 08:33:56;;;;;;;9.68;5.80;;;;;;;;;;5035781;28;20469;-67
2023/09/24 08:36:21;;;;;;;10.65;5.90;;;;;;;;;;5036055;28;20027;-67
2023/09/24 08:38:47;;;;;;;7.95;4.88;;;;;;;;;;5036082;28;20037;-66
2023/09/24 08:41:12;;;;;;;8.95;5.50;;;;;;;;;;5035613;28;20021;-67
2023/09/24 08:43:37;;;;;;;9.27;5.70;;;;;;;;;;5035643;28;20026;-66
2023/09/24 08:46:03;;;;;;;12.73;5.22;;;;;;;;;;5034953;28;20025;-66
2023/09/24 08:48:29;;;;;;;10.98;5.38;;;;;;;;;;5035497;28;20112;-66
2023/09/24 08:50:54;;;;;;;8.07;5.15;;;;;;;;;;5034135;28;20485;-66
2023/09/24 08:53:21;;;;;;;11.23;5.40;;;;;;;;;;5035498;28;20024;-67
2023/09/24 08:55:46;;;;;;;9.27;5.30;;;;;;;;;;5035630;28;20013;-68
2023/09/24 08:58:12;;;;;;;11.52;5.60;;;;;;;;;;5035450;28;20492;-68
2023/09/24 09:00:38;;;;;;;10.35;5.07;;;;;;;;;;5030375;28;20060;-67
2023/09/24 09:03:04;;;;;;;9.35;5.38;;;;;;;;;;5031520;28;20045;-67
2023/09/24 09:05:33;;;;;;;11.63;5.00;;;;;;;;;;5032561;28;20535;-66
2023/09/24 09:08:00;;;;;;;9.90;4.68;;;;;;;;;;5024116;28;20033;-66
2023/09/24 09:10:35;;;;;;;10.00;4.43;;;;;;;;;;5029769;28;20121;-67
2023/09/24 09:13:05;;;;;;;7.70;4.10;;;;;;;;;;5034860;28;20053;-66
2023/09/24 09:15:32;;;;;;;8.40;4.25;;;;;;;;;;5055359;28;20037;-67
2023/09/24 09:17:57;;;;;;;8.20;3.67;;;;;;;;;;5053086;28;20105;-67
2023/09/24 09:20:40;;;;;;;9.13;4.00;;;;;;;;;;5034647;28;20061;-68
2023/09/24 09:23:11;;;;;;;7.43;3.17;;;;;;;;;;5033725;28;20125;-67
2023/09/24 09:25:45;;;;;;;6.03;2.92;;;;;;;;;;5049982;28;20022;-68
2023/09/24 09:28:17;;;;;;;8.07;3.30;;;;;;;;;;5035675;28;20021;-67
2023/09/24 09:30:56;;;;;;;7.60;3.20;;;;;;;;;;5051657;28;20033;-67
2023/09/24 09:33:25;;;;;;;7.45;2.80;;;;;;;;;;5015016;28;20018;-68
2023/09/24 09:35:51;;;;;;;5.13;2.60;;;;;;;;;;5015204;28;20048;-74
2023/09/24 09:38:17;;;;;;;6.28;2.70;;;;;;;;;;5033279;28;20028;-74
2023/09/24 09:40:42;;;;;;;8.40;3.10;;;;;;;;;;5034451;28;20020;-74
2023/09/24 09:43:08;;;;;;;6.55;2.60;;;;;;;;;;5034610;28;20026;-72
2023/09/24 09:45:34;;;;;;;8.00;2.97;;;;;;;;;;5034393;28;20355;-73
2023/09/24 09:48:03;;;;;;;9.07;3.35;;;;;;;;;;5034650;28;20013;-73
2023/09/24 09:50:31;;;;;;;9.00;3.42;;;;;;;;;;5030240;28;20441;-73
2023/09/24 09:52:57;;;;;;;8.20;3.28;;;;;;;;;;5024185;28;20026;-72
2023/09/24 09:55:23;;;;;;;9.57;3.30;;;;;;;;;;5027368;28;20013;-73
2023/09/24 09:57:49;;;;;;;6.95;2.83;;;;;;;;;;5034169;28;20021;-74
2023/09/24 10:00:16;;;;;;;6.10;2.10;;;;;;;;;;5034503;28;20024;-72
2023/09/24 10:02:43;;;;;;;6.18;1.80;;;;;;;;;;5028390;28;20054;-72
2023/09/24 10:05:10;;;;;;;7.35;2.50;;;;;;;;;;5014644;28;20037;-72
2023/09/24 10:07:39;;;;;;;6.88;2.20;;;;;;;;;;5023975;28;20025;-72
2023/09/24 10:10:34;;;;;;;8.68;2.30;;;;;;;;;;5018210;28;20037;-72
2023/09/24 10:13:01;;;;;;;6.57;1.75;;;;;;;;;;4963981;28;20035;-73
2023/09/24 10:15:27;;;;;;;6.18;2.13;;;;;;;;;;4963085;28;20022;-72
2023/09/24 10:18:11;;;;;;;5.68;1.90;;;;;;;;;;4967705;28;20446;-73
2023/09/24 10:20:48;;;;;;;5.32;1.50;;;;;;;;;;4958340;28;20030;-72
2023/09/24 10:23:29;;;;;;;6.70;1.70;;;;;;;;;;4957948;28;20030;-73
2023/09/24 10:25:56;;;;;;;3.78;1.50;;;;;;;;;;4959346;28;20371;-73
2023/09/24 10:28:21;;;;;;;4.10;1.20;;;;;;;;;;4955186;28;20035;-74
2023/09/24 10:31:04;;;;;;;4.20;1.38;;;;;;;;;;4963564;28;20114;-74
2023/09/24 10:33:48;;;;;;;7.38;1.48;;;;;;;;;;4954368;28;20102;-72
2023/09/24 10:36:28;;;;;;;4.20;1.23;;;;;;;;;;4964221;28;20479;-71
2023/09/24 10:39:19;;;;;;;8.75;1.60;;;;;;;;;;4968879;28;20051;-73
2023/09/24 10:42:03;;;;;;;5.18;1.30;;;;;;;;;;4957777;28;20031;-75
2023/09/24 10:44:28;;;;;;;5.30;1.23;;;;;;;;;;4972505;28;20030;-74
2023/09/24 10:46:54;;;;;;;4.95;1.50;;;;;;;;;;4957452;28;20050;-66
2023/09/24 10:49:21;;;;;;;6.13;1.38;;;;;;;;;;4985740;28;20520;-65
2023/09/24 10:51:46;;;;;;;5.32;1.40;;;;;;;;;;5028678;28;20025;-66
2023/09/24 10:54:15;;;;;;;5.45;1.45;;;;;;;;;;5032954;28;20052;-66
2023/09/24 10:56:45;;;;;;;5.68;1.73;;;;;;;;;;5049595;28;20025;-66
2023/09/24 10:59:10;;;;;;;5.22;1.50;;;;;;;;;;5024306;28;20591;-67
2023/09/24 11:01:35;;;;;;;5.82;1.50;;;;;;;;;;5029367;28;20025;-65
2023/09/24 11:04:00;;;;;;;7.18;1.90;;;;;;;;;;5024482;28;20046;-67
2023/09/24 11:06:32;;;;;;;6.40;1.67;;;;;;;;;;5025335;28;20032;-67
2023/09/24 11:09:13;;;;;;;5.18;1.40;;;;;;;;;;5027508;28;20380;-66
2023/09/24 11:11:39;;;;;;;4.88;1.73;;;;;;;;;;5022393;28;20036;-66
2023/09/24 11:14:14;;;;;;;4.93;1.60;;;;;;;;;;5019062;28;20457;-66
2023/09/24 11:16:39;;;;;;;6.43;1.33;;;;;;;;;;5022727;28;20080;-67
2023/09/24 11:19:04;;;;;;;5.15;1.33;;;;;;;;;;5032959;28;20021;-66
2023/09/24 11:21:32;;;;;;;6.63;1.30;;;;;;;;;;5019854;28;20026;-65
2023/09/24 11:23:57;;;;;;;3.83;1.35;;;;;;;;;;5028096;28;20381;-66
2023/09/24 11:26:29;;;;;;;5.00;1.52;;;;;;;;;;5020911;28;20034;-66
2023/09/24 11:28:54;;;;;;;;;;;;;;;;;;5020897;28;20427;-67
2023/09/24 11:31:23;;;;;;;6.45;1.85;;;;;;;;;;5025727;28;20395;-65
2023/09/24 11:33:58;;;;;;;7.07;1.52;;;;;;;;;;5025482;28;20288;-65
2023/09/24 11:36:27;;;;;;;7.00;1.95;;;;;;;;;;5023143;28;20504;-65
2023/09/24 11:39:00;;;;;;;4.30;1.65;;;;;;;;;;5026794;28;20100;-66
2023/09/24 11:41:25;;;;;;;5.22;1.45;;;;;;;;;;5023701;28;20386;-66
2023/09/24 11:43:57;;;;;;;5.75;1.90;;;;;;;;;;5028590;28;20026;-66
2023/09/24 11:46:25;;;;;;;5.32;1.65;;;;;;;;;;5044819;28;20025;-65
2023/09/24 11:48:52;;;;;;;5.63;1.50;;;;;;;;;;5032289;28;20026;-65
2023/09/24 11:51:19;;;;;;;4.18;1.40;;;;;;;;;;5023652;28;20497;-65
2023/09/24 11:53:45;;;;;;;3.47;1.20;;;;;;;;;;5032823;28;20022;-67
2023/09/24 11:56:10;;;;;;;4.68;1.58;;;;;;;;;;5032440;28;20167;-66
2023/09/24 11:58:36;;;;;;;4.38;1.50;;;;;;;;;;5025897;28;20045;-66
2023/09/24 12:01:04;;;;;;;5.95;1.55;;;;;;;;;;5025317;28;20429;-65
2023/09/24 12:03:29;;;;;;;4.55;1.35;;;;;;;;;;5052681;28;20171;-67
2023/09/24 12:05:54;;;;;;;3.92;1.10;;;;;;;;;;5027339;28;20025;-67
2023/09/24 12:08:19;;;;;;;5.88;1.40;;;;;;;;;;5036760;28;20021;-66
2023/09/24 12:10:50;;;;;;;5.32;1.45;;;;;;;;;;5023129;28;20052;-65
2023/09/24 12:13:16;;;;;;;4.07;1.30;;;;;;;;;;5017790;28;20022;-66
2023/09/24 12:15:41;;;;;;;4.80;1.30;;;;;;;;;;5030870;28;20104;-66
2023/09/24 12:18:09;;;;;;;3.85;1.30;;;;;;;;;;5025910;28;20100;-66
2023/09/24 12:20:35;;;;;;;5.75;1.40;;;;;;;;;;5026684;28;20390;-67
2023/09/24 12:23:04;;;;;;;3.80;1.10;;;;;;;;;;5020206;28;20029;-69
2023/09/24 12:25:29;;;;;;;3.65;1.30;;;;;;;;;;5024529;28;20096;-67
2023/09/24 12:27:54;;;;;;;4.40;1.23;;;;;;;;;;5021633;28;20021;-68
2023/09/24 12:30:20;;;;;;;5.13;1.20;;;;;;;;;;5027703;28;20055;-69
2023/09/24 12:32:46;;;;;;;3.25;1.00;;;;;;;;;;5032372;28;20053;-68
2023/09/24 12:35:11;;;;;;;4.72;1.17;;;;;;;;;;5023374;28;20018;-68
2023/09/24 12:37:37;;;;;;;3.65;1.10;;;;;;;;;;5021700;28;20029;-68
2023/09/24 12:40:10;;;;;;;4.60;1.20;;;;;;;;;;5028276;28;20831;-68
2023/09/24 12:42:35;;;;;;;4.32;1.33;;;;;;;;;;5034737;28;20397;-68
2023/09/24 12:45:02;;;;;;;5.72;1.50;;;;;;;;;;5017421;28;20105;-68
2023/09/24 12:47:32;;;;;;;4.57;1.25;;;;;;;;;;5031247;28;20039;-68
2023/09/24 12:49:58;;;;;;;5.50;1.25;;;;;;;;;;5055169;28;20025;-67
2023/09/24 12:52:24;;;;;;;5.22;1.50;;;;;;;;;;5041640;28;20024;-67
2023/09/24 12:54:49;;;;;;;2.95;1.17;;;;;;;;;;5032982;28;20063;-68
2023/09/24 12:57:15;;;;;;;4.05;1.20;;;;;;;;;;5023252;28;20018;-67
2023/09/24 12:59:40;;;;;;;4.97;1.20;;;;;;;;;;5023607;28;20045;-69
2023/09/24 13:02:05;;;;;;;4.78;1.20;;;;;;;;;;5054995;28;20028;-69
2023/09/24 13:04:33;;;;;;;3.90;1.15;;;;;;;;;;5028919;28;20034;-68
2023/09/24 13:06:58;;;;;;;4.00;1.40;;;;;;;;;;5021019;28;20100;-68
2023/09/24 13:09:24;;;;;;;4.95;1.30;;;;;;;;;;5018124;28;20121;-68
2023/09/24 13:11:49;;;;;;;5.45;1.40;;;;;;;;;;5021524;28;20438;-67
2023/09/24 13:14:14;;;;;;;4.93;1.40;;;;;;;;;;5028579;28;20097;-67
2023/09/24 13:16:41;;;;;;;4.63;1.42;;;;;;;;;;5030275;28;20029;-67
2023/09/24 13:19:07;;;;;;;5.88;1.42;;;;;;;;;;5021427;28;20399;-68
2023/09/24 13:21:33;;;;;;;4.07;1.70;;;;;;;;;;5019300;28;20022;-65
2023/09/24 13:23:58;;;;;;;4.18;1.55;;;;;;;;;;5031155;28;20390;-68
2023/09/24 13:26:23;;;;;;;5.75;1.73;;;;;;;;;;5030348;28;20138;-68
2023/09/24 13:28:49;;;;;;;5.00;1.38;;;;;;;;;;5032392;28;20021;-68
2023/09/24 13:31:14;;;;;;;6.20;1.88;;;;;;;;;;5016396;28;20037;-69
2023/09/24 13:33:39;;;;;;;6.93;1.70;;;;;;;;;;5024737;28;20104;-68
2023/09/24 13:36:04;;;;;;;5.43;1.58;;;;;;;;;;5034511;28;20105;-67
2023/09/24 13:38:29;;;;;;;9.98;1.67;;;;;;;;;;5017571;28;20050;-66
2023/09/24 13:40:55;;;;;;;4.40;1.70;;;;;;;;;;5017718;28;20022;-65
2023/09/24 13:43:22;;;;;;;5.72;1.77;;;;;;;;;;5026650;28;20037;-66
2023/09/24 13:45:47;;;;;;;5.68;1.77;;;;;;;;;;5031350;28;20052;-66
2023/09/24 13:48:15;;;;;;;4.22;1.60;;;;;;;;;;5025174;28;20054;-66
2023/09/24 13:50:46;;;;;;;5.28;1.52;;;;;;;;;;5021029;28;20033;-66
2023/09/24 13:53:12;;;;;;;5.22;1.58;;;;;;;;;;5023040;28;20028;-66
2023/09/24 13:55:37;;;;;;;4.05;1.70;;;;;;;;;;5027062;28;20022;-67
2023/09/24 13:58:03;;;;;;;3.92;1.48;;;;;;;;;;5017946;28;20022;-66
2023/09/24 14:00:29;;;;;;;4.55;1.83;;;;;;;;;;5019172;28;20041;-66
2023/09/24 14:02:54;;;;;;;5.20;1.63;;;;;;;;;;5014788;28;20054;-67
2023/09/24 14:05:19;;;;;;;5.05;1.52;;;;;;;;;;5025870;28;20112;-67
2023/09/24 14:07:44;;;;;;;5.28;1.58;;;;;;;;;;5053999;28;20064;-66
2023/09/24 14:12:54;;;;;;;6.25;1.60;;;;;;;;;;5018135;28;20029;-68
2023/09/24 14:15:19;;;;;;;5.65;1.52;;;;;;;;;;5033848;28;20017;-68
2023/09/24 14:17:45;;;;;;;5.63;2.00;;;;;;;;;;5034085;28;20013;-67
2023/09/24 14:20:11;;;;;;;5.72;1.67;;;;;;;;;;5031738;28;20037;-68
2023/09/24 14:22:37;;;;;;;4.00;1.67;;;;;;;;;;5024396;28;20099;-68
2023/09/24 14:25:03;;;;;;;4.30;1.35;;;;;;;;;;5033155;28;20421;-67
2023/09/24 14:27:28;;;;;;;7.90;1.83;;;;;;;;;;5042492;28;20036;-67